• Join FlightAware (Why Join?)
  • Login
  • US Flag 
05:08PM EDT


 

Airport Tracker/Info


-or-


 

Live Flight TrackerFlight Track Log ✈ SWA1802 ✈ 09-Aug-2013 ✈ KMDW - KLAX

Flight Track Log - Related Links

Times and Time Zones

All times are in EDT time to prevent confusion due to time zone crossing. See the SWA1802 flight status page for this flight to view local times or setup timezone preferences in your user account.

Time Position Orientation Groundspeed Altitude Reporting Facility
EDT Latitude Longitude Course Direction KTS MPH feet Rate Location/Type
06:24PM 41.7990 -87.7700 311° West 163 188 1,500  Level FlightAware
06:24PM 41.8010 -87.7750 298° West 164 189 1,800 1,860 Climbing FlightAware
06:24PM 41.8030 -87.7860 284° West 173 199 2,000 780 Climbing FlightAware
06:24PM 41.7980 -87.8090 254° West 216 249 2,200 1,320 Climbing FlightAware
06:25PM 41.7900 -87.8340 247° West 236 272 2,900 1,800 Climbing FlightAware
06:25PM 41.7800 -87.8660 247° West 258 297 3,500 1,320 Climbing FlightAware
06:25PM 41.7710 -87.8930 246° West 262 302 3,800 780 Climbing FlightAware
06:26PM 41.7590 -87.9320 248° West 260 299 4,100 900 Climbing FlightAware
06:26PM 41.7530 -87.9500 246° West 264 304 4,400 2,400 Climbing FlightAware
06:26PM 41.7440 -87.9790 247° West 266 306 5,400 3,000 Climbing FlightAware
06:26PM 41.7420 -87.9930 259° West 265 305 5,800 3,000 Climbing FlightAware
06:27PM 41.7500 -88.0240 289° West 268 308 6,800 3,300 Climbing FlightAware
06:27PM 41.7590 -88.0470 298° West 267 307 7,800 3,420 Climbing FlightAware
06:27PM 41.7660 -88.0640 299° West 267 307 8,400 3,120 Climbing FlightAware
06:28PM 41.7800 -88.1000 298° West 268 308 9,700 3,000 Climbing FlightAware
06:28PM 41.7950 -88.1410 296° West 274 315 11,000 2,820 Climbing FlightAware
06:28PM 41.7960 -88.1550 275° West 276 318 11,400 1,440 Climbing FlightAware
06:29PM 41.7930 -88.2240 267° West 285 328 12,200 1,980 Climbing FlightAware
06:29PM 41.7900 -88.2810 266° West 285 328 13,800 2,760 Climbing FlightAware
06:30PM 41.7860 -88.3480 265° West 291 335 15,400 2,340 Climbing FlightAware
06:30PM 41.7830 -88.4080 266° West 299 344 16,600 2,340 Climbing FlightAware
06:31PM 41.7790 -88.4740 265° West 303 349 18,100 2,280 Climbing FlightAware
06:32PM 41.7750 -88.5450 266° West 312 359 19,400 1,980 Climbing FlightAware
06:32PM 41.7710 -88.6220 266° West 320 368 20,700 2,040 Climbing FlightAware
06:33PM 41.7670 -88.6960 266° West 324 373 22,000 1,740 Climbing FlightAware
06:34PM 41.7650 -88.7600 268° West 331 381 22,700 1,140 Climbing FlightAware
06:34PM 41.7630 -88.8330 268° West 335 386 23,300 1,320 Climbing FlightAware
06:35PM 41.7610 -88.9090 268° West 341 392 24,300 1,740 Climbing FlightAware
06:35PM 41.7590 -88.9770 268° West 344 396 25,300 1,560 Climbing FlightAware
06:36PM 41.7560 -89.0540 267° West 353 406 26,100 1,140 Climbing FlightAware
06:36PM 41.7380 -89.1310 253° West 369 425 26,700 780 Climbing FlightAware
06:37PM 41.7210 -89.1910 249° West 385 443 27,000 720 Climbing FlightAware
06:38PM 41.6990 -89.2730 250° West 397 457 27,500 960 Climbing FlightAware
06:38PM 41.6760 -89.3580 250° West 402 463 28,200 1,080 Climbing FlightAware
06:39PM 41.6540 -89.4380 250° West 403 464 28,800 1,020 Climbing FlightAware
06:39PM 41.6330 -89.5170 250° West 407 468 29,400 1,020 Climbing FlightAware
06:40PM 41.6120 -89.5950 250° West 409 471 30,000 1,020 Climbing FlightAware
06:40PM 41.5880 -89.6820 250° West 410 472 30,600 960 Climbing FlightAware
06:41PM 41.5630 -89.7750 250° West 414 476 31,200 1,020 Climbing FlightAware
06:42PM 41.5410 -89.8510 249° West 414 476 31,800 1,140 Climbing FlightAware
06:42PM 41.5180 -89.9360 250° West 411 473 32,500 1,080 Climbing FlightAware
06:43PM 41.4950 -90.0180 249° West 409 471 33,100 1,200 Climbing FlightAware
06:43PM 41.4720 -90.1030 250° West 404 465 33,900 1,200 Climbing FlightAware
06:44PM 41.4510 -90.1790 250° West 402 463 34,600 900 Climbing FlightAware
06:45PM 41.4260 -90.2670 249° West 403 464 35,000 600 Climbing FlightAware
06:45PM 41.4050 -90.3420 250° West 405 466 35,300 780 Climbing FlightAware
06:46PM 41.3810 -90.4260 249° West 403 464 35,900 600 Climbing FlightAware
06:46PM 41.3590 -90.5020 249° West 398 458 36,000 60 Climbing FlightAware
06:47PM 41.3350 -90.5880 250° West 400 460 36,000  Level FlightAware
06:47PM 41.3160 -90.6570 250° West 402 463 36,000  Level FlightAware
06:48PM 41.2830 -90.7700 249° West 403 464 36,000  Level FlightAware
06:49PM 41.2600 -90.8470 248° West 404 465 36,000  Level FlightAware
06:49PM 41.2420 -90.9250 253° West 405 466 36,000  Level FlightAware
06:50PM 41.2290 -91.0180 260° West 406 467 36,000  Level FlightAware
06:51PM 41.2150 -91.1210 260° West 405 466 36,000  Level FlightAware
06:51PM 41.2060 -91.1870 260° West 405 466 36,000  Level FlightAware
06:52PM 41.1930 -91.2830 260° West 404 465 36,000  Level FlightAware
06:52PM 41.1800 -91.3750 259° West 403 464 36,000  Level FlightAware
06:53PM 41.1690 -91.4560 260° West 401 461 36,000  Level FlightAware
06:54PM 41.1560 -91.5450 259° West 399 459 36,000  Level FlightAware
06:54PM 41.1450 -91.6170 259° West 398 458 36,000  Level FlightAware
06:55PM 41.1330 -91.7050 260° West 398 458 36,000  Level FlightAware
06:55PM 41.1200 -91.7940 259° West 397 457 36,000  Level FlightAware
06:56PM 41.1100 -91.8640 259° West 398 458 36,000  Level FlightAware
06:56PM 41.1000 -91.9360 260° West 399 459 36,000  Level FlightAware
06:57PM 41.0860 -92.0290 259° West 400 460 36,000  Level FlightAware
06:57PM 41.1170 -91.8200 79° East 36,000  Level FlightAware
06:58PM 41.0640 -92.1800 259° West 401 461 36,000  Level FlightAware
06:59PM 41.0510 -92.2680 259° West 401 461 36,000  Level FlightAware
06:59PM 41.0430 -92.3240 259° West 401 461 36,000  Level FlightAware
07:00PM 41.0260 -92.4330 258° West 402 463 36,000  Level FlightAware
07:00PM 41.0140 -92.5150 259° West 403 464 36,000  Level FlightAware
07:01PM 41.0010 -92.5980 258° West 404 465 36,000  Level FlightAware
07:01PM 40.9870 -92.6910 259° West 405 466 36,000  Level FlightAware
07:02PM 40.9750 -92.7730 259° West 406 467 36,000  Level FlightAware
07:03PM 40.9610 -92.8610 258° West 407 468 36,000  Level FlightAware
07:03PM 40.9480 -92.9490 259° West 405 466 36,000  Level FlightAware
07:04PM 40.9350 -93.0260 257° West 403 464 36,000  Level FlightAware
07:04PM 40.9220 -93.1110 259° West 403 464 36,000  Level FlightAware
07:05PM 40.9110 -93.1830 259° West 403 464 36,000  Level FlightAware
07:06PM 40.8960 -93.2800 258° West 402 463 36,000  Level FlightAware
07:06PM 40.8840 -93.3550 258° West 402 463 36,000  Level FlightAware
07:07PM 40.8630 -93.4860 258° West 401 461 36,000  Level FlightAware
07:08PM 40.8480 -93.5760 258° West 401 461 36,000  Level FlightAware
07:08PM 40.8330 -93.6720 258° West 400 460 36,000  Level FlightAware
07:09PM 40.8210 -93.7470 258° West 401 461 36,000  Level FlightAware
07:10PM 40.8030 -93.8540 258° West 401 461 36,000  Level FlightAware
07:10PM 40.7850 -93.9660 258° West 399 459 36,000  Level FlightAware
07:11PM 40.7710 -94.0490 257° West 399 459 36,000  Level FlightAware
07:11PM 40.7630 -94.0980 258° West 399 459 36,000  Level FlightAware
07:12PM 40.7440 -94.2140 258° West 399 459 36,000  Level FlightAware
07:13PM 40.7300 -94.2990 258° West 399 459 36,000  Level FlightAware
07:13PM 40.7170 -94.3750 257° West 400 460 36,000  Level FlightAware
07:14PM 40.7000 -94.4710 257° West 401 461 36,000  Level FlightAware
07:14PM 40.6900 -94.5340 258° West 402 463 36,000  Level FlightAware
07:15PM 40.6750 -94.6180 257° West 403 464 36,000  Level FlightAware
07:15PM 40.6610 -94.6990 257° West 405 466 36,000  Level FlightAware
07:16PM 40.6460 -94.7910 258° West 406 467 36,000  Level FlightAware
07:17PM 40.6340 -94.8620 257° West 408 470 36,000  Level FlightAware
07:17PM 40.6170 -94.9560 257° West 409 471 36,000  Level FlightAware
07:18PM 40.6040 -95.0310 257° West 410 472 36,000  Level FlightAware
07:18PM 40.5880 -95.1260 258° West 412 474 36,000  Level FlightAware
07:19PM 40.5730 -95.2090 257° West 412 474 36,000  Level FlightAware
07:20PM 40.5570 -95.2990 257° West 411 473 36,000  Level FlightAware
07:20PM 40.5440 -95.3740 257° West 411 473 36,000  Level FlightAware
07:21PM 40.5280 -95.4630 257° West 409 471 36,000  Level FlightAware
07:21PM 40.5140 -95.5400 257° West 409 471 36,000  Level FlightAware
07:22PM 40.4980 -95.6300 257° West 408 470 36,000  Level FlightAware
07:22PM 40.4830 -95.7090 256° West 407 468 36,000  Level FlightAware
07:23PM 40.4650 -95.8080 257° West 407 468 36,000  Level FlightAware
07:24PM 40.4510 -95.8850 257° West 405 466 36,000  Level FlightAware
07:24PM 40.4370 -95.9630 257° West 404 465 36,000  Level FlightAware
07:25PM 40.4200 -96.0560 257° West 404 465 36,000  Level FlightAware
07:25PM 40.4040 -96.1420 256° West 404 465 36,000  Level FlightAware
07:26PM 40.3900 -96.2160 256° West 404 465 36,000  Level FlightAware
07:27PM 40.3730 -96.3060 256° West 403 464 36,000  Level FlightAware
07:27PM 40.3580 -96.3880 257° West 402 463 36,000  Level FlightAware
07:28PM 40.3430 -96.4670 256° West 403 464 36,000  Level FlightAware
07:28PM 40.3280 -96.5500 257° West 402 463 36,000  Level FlightAware
07:29PM 40.3110 -96.6350 255° West 402 463 36,000  Level FlightAware
07:30PM 40.2950 -96.7230 257° West 403 464 36,000  Level FlightAware
07:30PM 40.2800 -96.7980 255° West 404 465 36,000  Level FlightAware
07:31PM 40.2640 -96.8810 256° West 405 466 36,000  Level FlightAware
07:31PM 40.2470 -96.9680 256° West 406 467 36,000  Level FlightAware
07:32PM 40.2320 -97.0460 256° West 406 467 36,000  Level FlightAware
07:32PM 40.2170 -97.1270 256° West 405 466 36,000  Level FlightAware
07:33PM 40.1990 -97.2190 256° West 406 467 36,000  Level FlightAware
07:34PM 40.1840 -97.2920 255° West 406 467 36,000  Level FlightAware
07:34PM 40.1680 -97.3730 256° West 408 470 36,000  Level FlightAware
07:35PM 40.1530 -97.4490 256° West 409 471 36,000  Level FlightAware
07:35PM 40.1380 -97.5230 255° West 409 471 36,000  Level FlightAware
07:36PM 40.1180 -97.6290 256° West 404 465 36,000  Level FlightAware
07:37PM 40.1010 -97.7100 255° West 404 465 36,000  Level FlightAware
07:37PM 40.0860 -97.7820 255° West 404 465 36,000  Level FlightAware
07:38PM 40.0660 -97.8840 256° West 405 466 36,000  Level FlightAware
07:38PM 40.0510 -97.9590 255° West 405 466 36,000  Level FlightAware
07:39PM 40.0330 -98.0480 255° West 404 465 36,000  Level FlightAware
07:39PM 40.0140 -98.1420 255° West 402 463 36,000  Level FlightAware
07:40PM 39.9980 -98.2180 255° West 402 463 36,000  Level FlightAware
07:41PM 39.9820 -98.2980 255° West 401 461 36,000  Level FlightAware
07:41PM 39.9580 -98.4140 255° West 401 461 36,000  Level FlightAware
07:42PM 39.9390 -98.5000 254° West 401 461 36,000  Level FlightAware
07:43PM 39.9190 -98.5970 255° West 404 465 36,000  Level FlightAware
07:43PM 39.9050 -98.6640 255° West 404 465 36,000  Level FlightAware
07:44PM 39.8890 -98.7360 254° West 404 465 36,000  Level FlightAware
07:45PM 39.8730 -98.8100 254° West 404 465 36,000  Level FlightAware
07:45PM 39.8570 -98.8810 254° West 404 465 36,000  Level FlightAware
07:46PM 39.8410 -98.9530 254° West 404 465 36,000  Level FlightAware
07:46PM 39.8310 -99.0010 255° West 404 465 36,000  Level FlightAware
07:47PM 39.8150 -99.0720 254° West 404 465 36,000  Level FlightAware
07:47PM 39.7990 -99.1440 254° West 404 465 36,000  Level FlightAware
07:48PM 39.7830 -99.2170 254° West 404 465 36,000  Level FlightAware
07:49PM 39.7620 -99.3130 254° West 404 465 36,000  Level FlightAware
07:49PM 39.7460 -99.3840 254° West 404 465 36,000  Level FlightAware
07:50PM 39.7300 -99.4580 254° West 404 465 36,000  Level FlightAware
07:51PM 39.7140 -99.5290 254° West 404 465 36,000  Level FlightAware
07:51PM 39.6990 -99.6010 255° West 404 465 36,000  Level FlightAware
07:52PM 39.6830 -99.6720 254° West 404 465 36,000  Level FlightAware
07:52PM 39.6670 -99.7430 254° West 404 465 36,000  Level FlightAware
07:53PM 39.6108 -100.0278 254° West 406 467 36,000  Level Minneapolis Center
07:54PM 39.5903 -100.1122 252° West 404 465 36,000  Level Denver Center
07:55PM 39.5556 -100.2658 254° West 398 458 36,000  Level Denver Center
07:56PM 39.5253 -100.4000 254° West 403 464 36,000  Level Denver Center
07:57PM 39.4953 -100.5325 254° West 401 461 36,000  Level Denver Center
07:58PM 39.4592 -100.6869 253° West 400 460 36,000  Level Denver Center
07:59PM 39.4289 -100.8194 254° West 400 460 36,000 240 Level Denver Center
08:05PM 39.2260 -101.6810 254° West 393 452 37,900 240 Climbing FlightAware
08:06PM 39.2090 -101.7510 253° West 393 452 37,900  Level FlightAware
08:06PM 39.1910 -101.8210 252° West 393 452 37,900 60 Level FlightAware
08:07PM 39.1590 -101.9580 253° West 396 456 38,000 60 Climbing FlightAware
08:08PM 39.1410 -102.0280 252° West 396 456 38,000  Level FlightAware
08:08PM 39.1190 -102.1230 253° West 398 458 38,000  Level FlightAware
08:09PM 39.0960 -102.2150 252° West 398 458 38,000  Level FlightAware
08:09PM 39.0790 -102.2870 253° West 398 458 38,000  Level FlightAware
08:10PM 39.0540 -102.3870 252° West 399 459 38,000  Level FlightAware
08:11PM 39.0330 -102.4740 253° West 398 458 38,000  Level FlightAware
08:12PM 39.0110 -102.5620 252° West 398 458 38,000  Level FlightAware
08:12PM 38.9870 -102.6570 252° West 397 457 38,000  Level FlightAware
08:13PM 38.9680 -102.7330 252° West 397 457 38,000  Level FlightAware
08:13PM 38.9470 -102.8150 252° West 397 457 38,000  Level FlightAware
08:14PM 38.9260 -102.8990 252° West 396 456 38,000  Level FlightAware
08:14PM 38.9090 -102.9660 252° West 395 455 38,000  Level FlightAware
08:15PM 38.8880 -103.0480 252° West 396 456 38,000  Level FlightAware
08:16PM 38.8680 -103.1290 252° West 395 455 38,000  Level FlightAware
08:16PM 38.8480 -103.2060 252° West 393 452 38,000  Level FlightAware
08:17PM 38.8290 -103.2800 252° West 392 451 38,000  Level FlightAware
08:17PM 38.8080 -103.3620 252° West 390 449 38,000  Level FlightAware
08:18PM 38.7890 -103.4350 252° West 390 449 38,000  Level FlightAware
08:19PM 38.7670 -103.5140 250° West 389 448 38,000  Level FlightAware
08:19PM 38.7370 -103.5840 241° Southwest 389 448 38,000  Level FlightAware
08:20PM 38.7050 -103.6590 241° Southwest 389 448 38,000  Level FlightAware
08:20PM 38.6750 -103.7270 241° Southwest 389 448 38,000  Level FlightAware
08:21PM 38.6430 -103.7910 237° Southwest 389 448 38,000  Level FlightAware
08:22PM 38.6080 -103.8610 237° Southwest 388 447 38,000  Level FlightAware
08:22PM 38.5730 -103.9320 238° Southwest 389 448 38,000  Level FlightAware
08:23PM 38.5420 -103.9950 238° Southwest 391 450 38,000  Level FlightAware
08:23PM 38.5080 -104.0650 238° Southwest 393 452 38,000  Level FlightAware
08:24PM 38.4710 -104.1380 237° Southwest 393 452 38,000  Level FlightAware
08:25PM 38.4380 -104.2080 239° Southwest 393 452 38,000  Level FlightAware
08:25PM 38.4030 -104.2780 237° Southwest 393 452 38,000  Level FlightAware
08:26PM 38.3670 -104.3520 238° Southwest 394 453 38,000  Level FlightAware
08:26PM 38.3300 -104.4260 238° Southwest 395 455 38,000  Level FlightAware
08:27PM 38.2990 -104.4890 238° Southwest 394 453 38,000  Level FlightAware
08:27PM 38.2650 -104.5590 238° Southwest 393 452 38,000  Level FlightAware
08:28PM 38.2310 -104.6370 241° Southwest 393 452 38,000  Level FlightAware
08:29PM 38.2100 -104.7030 248° West 393 452 38,000  Level FlightAware
08:29PM 38.1910 -104.7750 251° West 394 453 38,000  Level FlightAware
08:30PM 38.1720 -104.8550 253° West 395 455 38,000  Level FlightAware
08:30PM 38.1520 -104.9340 252° West 395 455 38,000  Level FlightAware
08:31PM 38.1340 -105.0040 252° West 395 455 38,000  Level FlightAware
08:32PM 38.1130 -105.0890 253° West 395 455 38,000  Level FlightAware
08:32PM 38.0930 -105.1680 252° West 394 453 38,000  Level FlightAware
08:33PM 38.0740 -105.2440 252° West 392 451 38,000  Level FlightAware
08:33PM 38.0540 -105.3230 252° West 393 452 38,000  Level FlightAware
08:34PM 38.0350 -105.3980 252° West 393 452 38,000  Level FlightAware
08:35PM 38.0150 -105.4800 253° West 390 449 38,000  Level FlightAware
08:35PM 37.9980 -105.5470 252° West 387 445 38,000  Level FlightAware
08:36PM 37.9780 -105.6230 252° West 385 443 38,000  Level FlightAware
08:36PM 37.9580 -105.7020 252° West 384 442 38,000  Level FlightAware
08:37PM 37.9400 -105.7740 252° West 384 442 38,000  Level FlightAware
08:38PM 37.9130 -105.8760 251° West 385 443 38,000  Level FlightAware
08:38PM 37.8930 -105.9550 252° West 387 445 38,000  Level FlightAware
08:39PM 37.8740 -106.0290 252° West 389 448 38,000  Level FlightAware
08:39PM 37.8540 -106.1060 252° West 388 447 38,000  Level FlightAware
08:40PM 37.8340 -106.1800 251° West 388 447 38,000  Level FlightAware
08:40PM 37.8170 -106.2450 252° West 389 448 38,000  Level FlightAware
08:41PM 37.7940 -106.3350 252° West 391 450 38,000  Level FlightAware
08:42PM 37.7730 -106.4140 251° West 393 452 38,000  Level FlightAware
08:42PM 37.7560 -106.4790 252° West 395 455 38,000  Level FlightAware
08:43PM 37.7340 -106.5610 251° West 395 455 38,000  Level FlightAware
08:43PM 37.7170 -106.6250 251° West 391 450 38,000  Level FlightAware
08:44PM 37.6930 -106.7160 252° West 390 449 38,000  Level FlightAware
08:45PM 37.6740 -106.7860 251° West 390 449 38,000  Level FlightAware
08:45PM 37.6540 -106.8630 252° West 391 450 38,000  Level FlightAware
08:46PM 37.6330 -106.9400 251° West 391 450 38,000  Level FlightAware
08:46PM 37.6100 -107.0230 251° West 392 451 38,000  Level FlightAware
08:47PM 37.5880 -107.1050 251° West 389 448 38,000  Level FlightAware
08:48PM 37.5680 -107.1810 252° West 388 447 38,000  Level FlightAware
08:48PM 37.5470 -107.2570 251° West 388 447 38,000  Level FlightAware
08:49PM 37.5270 -107.3310 251° West 387 445 38,000  Level FlightAware
08:49PM 37.5020 -107.4000 245° Southwest 384 442 38,000  Level FlightAware
08:50PM 37.4690 -107.4750 241° Southwest 383 441 38,000  Level FlightAware
08:51PM 37.4430 -107.5350 241° Southwest 384 442 38,000  Level FlightAware
08:51PM 37.4120 -107.6050 241° Southwest 384 442 38,000  Level FlightAware
08:52PM 37.3840 -107.6790 245° Southwest 390 449 38,000  Level FlightAware
08:52PM 37.3680 -107.7420 252° West 389 448 38,000  Level FlightAware
08:53PM 37.3460 -107.8200 250° West 386 444 38,000  Level FlightAware
08:53PM 37.3250 -107.8980 251° West 385 443 38,000  Level FlightAware
08:54PM 37.3060 -107.9690 251° West 383 441 38,000  Level FlightAware
08:55PM 37.2860 -108.0410 251° West 383 441 38,000  Level FlightAware
08:55PM 37.2610 -108.1320 251° West 383 441 38,000  Level FlightAware
08:56PM 37.2410 -108.2070 252° West 383 441 38,000  Level FlightAware
08:57PM 37.2180 -108.2880 250° West 385 443 38,000  Level FlightAware
08:57PM 37.2020 -108.3490 252° West 385 443 38,000  Level FlightAware
08:58PM 37.1810 -108.4250 251° West 387 445 38,000  Level FlightAware
08:58PM 37.1610 -108.4970 251° West 387 445 38,000  Level FlightAware
08:59PM 37.1370 -108.5810 250° West 388 447 38,000  Level FlightAware
08:59PM 37.1190 -108.6460 251° West 390 449 38,000  Level FlightAware
09:00PM 37.0940 -108.7360 251° West 390 449 38,000  Level FlightAware
09:01PM 37.0750 -108.8010 250° West 390 449 38,000  Level FlightAware
09:01PM 37.0570 -108.8620 250° West 390 449 38,000  Level FlightAware
09:02PM 37.0370 -108.9310 250° West 390 449 38,000  Level FlightAware
09:03PM 37.0180 -108.9970 250° West 390 449 38,000  Level FlightAware
09:03PM 37.0000 -109.0590 250° West 390 449 38,000  Level FlightAware
09:04PM 36.9570 -109.2200 252° West 393 452 38,000  Level FlightAware
09:05PM 36.9330 -109.3050 251° West 395 455 38,000  Level FlightAware
09:05PM 36.9100 -109.3840 250° West 396 456 38,000  Level FlightAware
09:06PM 36.8950 -109.4370 251° West 396 456 38,000  Level FlightAware
09:06PM 36.8760 -109.5030 250° West 396 456 38,000  Level FlightAware
09:07PM 36.8570 -109.5690 250° West 396 456 38,000  Level FlightAware
09:08PM 36.8370 -109.6370 250° West 396 456 38,000  Level FlightAware
09:08PM 36.8190 -109.6990 250° West 396 456 38,000  Level FlightAware
09:09PM 36.8000 -109.7650 250° West 396 456 38,000  Level FlightAware
09:09PM 36.7800 -109.8300 249° West 396 456 38,000  Level FlightAware
09:10PM 36.7610 -109.8980 251° West 396 456 38,000  Level FlightAware
09:11PM 36.7410 -109.9660 250° West 396 456 38,000  Level FlightAware
09:11PM 36.7210 -110.0350 250° West 396 456 38,000  Level FlightAware
09:12PM 36.7020 -110.1010 250° West 396 456 38,000  Level FlightAware
09:12PM 36.6410 -110.3060 250° West 396 456 38,000  Level FlightAware
09:13PM 36.6190 -110.3830 250° West 396 456 38,000  Level FlightAware
09:13PM 36.5990 -110.4500 250° West 397 457 38,000  Level FlightAware
09:14PM 36.5750 -110.5280 249° West 397 457 38,000  Level FlightAware
09:15PM 36.5530 -110.6040 250° West 399 459 38,000  Level FlightAware
09:15PM 36.5330 -110.6710 250° West 401 461 38,000  Level FlightAware
09:16PM 36.5080 -110.7540 249° West 402 463 38,000  Level FlightAware
09:16PM 36.4840 -110.8310 249° West 402 463 38,000  Level FlightAware
09:17PM 36.4640 -110.8970 249° West 402 463 38,000  Level FlightAware
09:18PM 36.4400 -110.9780 250° West 402 463 38,000  Level FlightAware
09:18PM 36.4160 -111.0550 249° West 404 465 38,000  Level FlightAware
09:19PM 36.3920 -111.1340 249° West 404 465 38,000  Level FlightAware
09:19PM 36.3720 -111.2010 250° West 404 465 38,000  Level FlightAware
09:20PM 36.3470 -111.2770 248° West 403 464 38,000  Level FlightAware
09:20PM 36.3200 -111.3520 246° West 403 464 38,000  Level FlightAware
09:21PM 36.2940 -111.4260 246° West 404 465 38,000  Level FlightAware
09:22PM 36.2710 -111.4910 246° West 405 466 38,000  Level FlightAware
09:22PM 36.2430 -111.5700 246° West 405 466 38,000  Level FlightAware
09:23PM 36.2170 -111.6450 247° West 407 468 38,000  Level FlightAware
09:23PM 36.1910 -111.7190 246° West 408 470 38,000  Level FlightAware
09:24PM 36.1640 -111.7950 246° West 409 471 38,000  Level FlightAware
09:24PM 36.1360 -111.8720 246° West 410 472 38,000  Level FlightAware
09:25PM 36.1120 -111.9400 246° West 411 473 38,000  Level FlightAware
09:25PM 36.0900 -111.9900 241° Southwest 410 472 38,000  Level FlightAware
09:26PM 36.0480 -112.0440 226° Southwest 410 472 38,000  Level FlightAware
09:27PM 35.9960 -112.1070 224° Southwest 410 472 38,000  Level FlightAware
09:27PM 35.9530 -112.1590 224° Southwest 410 472 38,000  Level FlightAware
09:28PM 35.9050 -112.2170 224° Southwest 410 472 38,000  Level FlightAware
09:28PM 35.8560 -112.2760 224° Southwest 410 472 38,000  Level FlightAware
09:29PM 35.8080 -112.3360 225° Southwest 410 472 38,000  Level FlightAware
09:29PM 35.7640 -112.3890 224° Southwest 410 472 38,000  Level FlightAware
09:30PM 35.7190 -112.4500 228° Southwest 410 472 38,000  Level FlightAware
09:31PM 35.6900 -112.5260 245° Southwest 413 475 38,000  Level FlightAware
09:31PM 35.6690 -112.5920 249° West 412 474 38,000  Level FlightAware
09:32PM 35.6470 -112.6620 249° West 412 474 38,000  Level FlightAware
09:32PM 35.6220 -112.7390 248° West 410 472 38,000  Level FlightAware
09:33PM 35.5960 -112.8180 248° West 409 471 38,000  Level FlightAware
09:33PM 35.5710 -112.8950 248° West 408 470 38,000  Level FlightAware
09:34PM 35.5490 -112.9650 249° West 407 468 38,000  Level FlightAware
09:35PM 35.5240 -113.0420 248° West 406 467 38,000  Level FlightAware
09:35PM 35.5020 -113.1100 248° West 405 466 38,000  Level FlightAware
09:36PM 35.4770 -113.1870 248° West 404 465 38,000  Level FlightAware
09:36PM 35.4520 -113.2630 248° West 404 465 38,000  Level FlightAware
09:37PM 35.4270 -113.3400 248° West 403 464 38,000  Level FlightAware
09:38PM 35.4030 -113.4130 248° West 403 464 38,000  Level FlightAware
09:38PM 35.3780 -113.4880 248° West 404 465 38,000  Level FlightAware
09:39PM 35.3540 -113.5590 248° West 404 465 38,000  Level FlightAware
09:39PM 35.3290 -113.6360 248° West 405 466 38,000  Level FlightAware
09:40PM 35.3030 -113.7120 247° West 406 467 38,000  Level FlightAware
09:40PM 35.2780 -113.7880 248° West 409 471 38,000  Level FlightAware
09:41PM 35.2550 -113.8580 248° West 410 472 38,000  Level FlightAware
09:42PM 35.2330 -113.9230 248° West 411 473 38,000  Level FlightAware
09:42PM 35.2050 -114.0080 248° West 412 474 38,000  Level FlightAware
09:43PM 35.1800 -114.0810 247° West 413 475 38,000  Level FlightAware
09:43PM 35.1520 -114.1620 247° West 411 473 38,000  Level FlightAware
09:44PM 35.1300 -114.2290 248° West 411 473 38,000  Level FlightAware
09:45PM 35.1040 -114.3050 247° West 411 473 38,000  Level FlightAware
09:45PM 35.0760 -114.3870 247° West 411 473 38,000  Level FlightAware
09:46PM 35.0520 -114.4590 248° West 409 471 38,000  Level FlightAware
09:46PM 35.0260 -114.5340 247° West 408 470 38,000  Level FlightAware
09:47PM 35.0000 -114.6100 247° West 407 468 38,000  Level FlightAware
09:47PM 34.9770 -114.6790 248° West 407 468 38,000  Level FlightAware
09:48PM 34.9500 -114.7560 247° West 406 467 38,000  Level FlightAware
09:49PM 34.9260 -114.8240 247° West 406 467 38,000  Level FlightAware
09:49PM 34.8990 -114.9040 248° West 407 468 38,000  Level FlightAware
09:50PM 34.8740 -114.9760 247° West 408 470 38,000  Level FlightAware
09:50PM 34.8460 -115.0560 247° West 407 468 38,000  Level FlightAware
09:51PM 34.8220 -115.1240 247° West 409 471 38,000 -480 Level FlightAware
09:52PM 34.7960 -115.2010 248° West 409 471 37,500 -840 Descending FlightAware
09:52PM 34.7700 -115.2750 247° West 413 475 37,000 -960 Descending FlightAware
09:53PM 34.7460 -115.3410 246° West 414 476 36,500 -1,020 Descending FlightAware
09:53PM 34.7190 -115.4200 247° West 419 482 35,900 -1,020 Descending FlightAware
09:54PM 34.6920 -115.4960 247° West 419 482 35,300 -960 Descending FlightAware
09:54PM 34.6660 -115.5700 247° West 422 486 34,800 -960 Descending FlightAware
09:55PM 34.6370 -115.6520 247° West 429 494 34,200 -1,020 Descending FlightAware
09:56PM 34.6100 -115.7270 246° West 433 498 33,600 -1,020 Descending FlightAware
09:56PM 34.5800 -115.8120 247° West 438 504 33,000 -1,020 Descending FlightAware
09:57PM 34.5550 -115.8830 247° West 443 510 32,500 -1,020 Descending FlightAware
09:57PM 34.5250 -115.9650 246° West 439 505 31,900 -1,020 Descending FlightAware
09:58PM 34.5010 -116.0320 247° West 437 503 31,400 -1,080 Descending FlightAware
09:59PM 34.4690 -116.1220 247° West 435 501 30,700 -1,080 Descending FlightAware
09:59PM 34.4410 -116.1980 246° West 430 495 30,100 -1,020 Descending FlightAware
10:00PM 34.4160 -116.2680 247° West 427 491 29,600 -1,020 Descending FlightAware
10:00PM 34.3850 -116.3560 247° West 425 489 28,900 -1,140 Descending FlightAware
10:01PM 34.3590 -116.4270 246° West 422 486 28,300 -660 Descending FlightAware
10:02PM 34.3290 -116.5090 246° West 421 484 28,100 -1,020 Descending FlightAware
10:02PM 34.2950 -116.6000 246° West 418 481 27,000 -1,440 Descending FlightAware
10:03PM 34.2700 -116.6700 247° West 411 473 26,400 -1,560 Descending FlightAware
10:03PM 34.2420 -116.7470 246° West 402 463 25,200 -2,100 Descending FlightAware
10:04PM 34.2170 -116.8140 246° West 393 452 24,000 -2,160 Descending FlightAware
10:04PM 34.1920 -116.8840 247° West 384 442 22,800 -2,040 Descending FlightAware
10:05PM 34.1650 -116.9550 245° Southwest 375 432 21,600 -1,920 Descending FlightAware
10:06PM 34.1410 -117.0220 247° West 367 422 20,500 -1,920 Descending FlightAware
10:06PM 34.1170 -117.0840 245° Southwest 362 417 19,400 -1,320 Descending FlightAware
10:07PM 34.0900 -117.1500 244° Southwest 358 412 19,000 -360 Descending FlightAware
10:07PM 34.0650 -117.2060 242° Southwest 365 420 19,000 -1,020 Level FlightAware
10:08PM 34.0470 -117.2630 249° West 373 429 18,000 -1,860 Descending FlightAware
10:08PM 34.0400 -117.3330 263° West 355 409 17,000 -1,380 Descending FlightAware
10:09PM 34.0340 -117.3970 264° West 326 375 16,500 -1,320 Descending FlightAware
10:10PM 34.0290 -117.4600 265° West 312 359 15,500 -1,920 Descending FlightAware
10:10PM 34.0320 -117.5220 273° West 313 360 14,200 -2,100 Descending FlightAware
10:11PM 34.0340 -117.5740 273° West 308 354 13,200 -1,920 Descending FlightAware
10:11PM 34.0280 -117.6330 263° West 303 349 12,100 -2,040 Descending FlightAware
10:12PM 34.0220 -117.7000 264° West 301 346 10,700 -2,100 Descending FlightAware
10:12PM 34.0170 -117.7460 263° West 297 342 9,800 -1,800 Descending FlightAware
10:13PM 34.0140 -117.7810 264° West 293 337 9,200 -1,440 Descending FlightAware
10:13PM 34.0110 -117.8130 264° West 281 323 8,800 -900 Descending FlightAware
10:13PM 34.0080 -117.8450 264° West 267 307 8,600 -900 Descending FlightAware
10:14PM 34.0050 -117.8750 263° West 258 297 8,200 -1,080 Descending FlightAware
10:14PM 34.0020 -117.9030 263° West 253 291 7,900 -720 Descending FlightAware
10:14PM 34.0000 -117.9240 263° West 239 275 7,800 -540 Descending FlightAware
10:15PM 33.9970 -117.9510 262° West 223 257 7,600 -840 Descending FlightAware
10:15PM 33.9940 -117.9790 263° West 212 244 7,200 -1,140 Descending FlightAware
10:15PM 33.9920 -118.0030 264° West 207 238 6,800 -1,320 Descending FlightAware
10:16PM 33.9900 -118.0280 264° West 207 238 6,300 -1,320 Descending FlightAware
10:16PM 33.9880 -118.0500 264° West 207 238 5,900 -1,200 Descending FlightAware
10:17PM 33.9850 -118.0730 261° West 204 235 5,500 -1,260 Descending FlightAware
10:17PM 33.9830 -118.0940 263° West 205 236 5,100 -1,500 Descending FlightAware
10:17PM 33.9800 -118.1220 263° West 206 237 4,400 -1,500 Descending FlightAware
10:18PM 33.9780 -118.1460 264° West 203 234 4,000 -1,200 Descending FlightAware
10:18PM 33.9760 -118.1680 264° West 200 230 3,600 -1,200 Descending FlightAware
10:18PM 33.9740 -118.1900 264° West 197 227 3,200 -1,380 Descending FlightAware
10:19PM 33.9710 -118.2120 261° West 198 228 2,700 -1,140 Descending FlightAware
10:19PM 33.9700 -118.2310 266° West 199 229 2,300 -600 Descending FlightAware
10:19PM 33.9660 -118.2660 262° West 198 228 2,200 -600 Descending FlightAware
10:20PM 33.9640 -118.2890 264° West 193 222 1,900 -960 Descending FlightAware
10:20PM 33.9620 -118.3060 262° West 182 209 1,600 -900 Descending FlightAware
10:20PM 33.9600 -118.3270 263° West 164 189 1,300 -720 Descending FlightAware
10:21PM 33.9580 -118.3430 261° West 147 169 1,100 -840 Descending FlightAware
10:21PM 33.9560 -118.3670 264° West 146 168 700 -960 Descending FlightAware
10:21PM 33.9550 -118.3770 263° West 147 169 500 -780 Descending FlightAware
10:22PM 33.9530 -118.3920 261° West 146 168 300 -300 Descending FlightAware
10:22PM 33.9510 -118.4120 263° West 146 168 300  Level FlightAware
10:30PM 33.9425 -118.4081 259° West  Level Estimated
10:31PM 33.9425 -118.4081 259° West  Level Estimated